sensor_id;sensor_type;location;lat;lon;timestamp;temperature;humidity
14934;DHT22;7560;51.364;12.384;2023-04-01T00:03:01;10.60;99.90
14934;DHT22;7560;51.364;12.384;2023-04-01T00:08:03;10.60;99.90
14934;DHT22;7560;51.364;12.384;2023-04-01T00:13:05;10.50;99.90
14934;DHT22;7560;51.364;12.384;2023-04-01T00:18:07;10.60;99.90
14934;DHT22;7560;51.364;12.384;2023-04-01T00:23:10;10.60;99.90
14934;DHT22;7560;51.364;12.384;2023-04-01T00:28:12;10.60;99.90
14934;DHT22;7560;51.364;12.384;2023-04-01T00:33:13;10.50;99.90
14934;DHT22;7560;51.364;12.384;2023-04-01T00:38:15;10.50;99.90
14934;DHT22;7560;51.364;12.384;2023-04-01T00:43:19;10.60;99.90
14934;DHT22;7560;51.364;12.384;2023-04-01T00:48:23;10.50;99.90
14934;DHT22;7560;51.364;12.384;2023-04-01T00:53:28;10.50;99.90
14934;DHT22;7560;51.364;12.384;2023-04-01T00:58:34;10.50;99.90
14934;DHT22;7560;51.364;12.384;2023-04-01T01:03:37;10.50;99.90
14934;DHT22;7560;51.364;12.384;2023-04-01T01:14:10;10.60;99.90
14934;DHT22;7560;51.364;12.384;2023-04-01T01:25:16;10.60;99.90
14934;DHT22;7560;51.364;12.384;2023-04-01T01:30:39;10.60;99.90
14934;DHT22;7560;51.364;12.384;2023-04-01T01:35:49;10.60;99.90
14934;DHT22;7560;51.364;12.384;2023-04-01T01:40:52;10.50;99.90
14934;DHT22;7560;51.364;12.384;2023-04-01T01:45:58;10.50;99.90
14934;DHT22;7560;51.364;12.384;2023-04-01T01:51:02;10.50;99.90
14934;DHT22;7560;51.364;12.384;2023-04-01T01:56:04;10.50;99.90
14934;DHT22;7560;51.364;12.384;2023-04-01T02:01:13;10.60;99.90
14934;DHT22;7560;51.364;12.384;2023-04-01T02:06:18;10.60;99.90
14934;DHT22;7560;51.364;12.384;2023-04-01T02:11:27;10.60;99.90
14934;DHT22;7560;51.364;12.384;2023-04-01T02:16:34;10.60;99.90
14934;DHT22;7560;51.364;12.384;2023-04-01T02:21:38;10.60;99.90
14934;DHT22;7560;51.364;12.384;2023-04-01T02:26:41;10.60;99.90
14934;DHT22;7560;51.364;12.384;2023-04-01T02:31:43;10.60;99.90
14934;DHT22;7560;51.364;12.384;2023-04-01T02:36:45;10.60;99.90
14934;DHT22;7560;51.364;12.384;2023-04-01T02:41:48;10.60;99.90
14934;DHT22;7560;51.364;12.384;2023-04-01T02:46:50;10.60;99.90
14934;DHT22;7560;51.364;12.384;2023-04-01T02:51:52;10.60;99.90
14934;DHT22;7560;51.364;12.384;2023-04-01T02:56:53;10.60;99.90
14934;DHT22;7560;51.364;12.384;2023-04-01T03:01:55;10.60;99.90
14934;DHT22;7560;51.364;12.384;2023-04-01T03:06:57;10.60;99.90
14934;DHT22;7560;51.364;12.384;2023-04-01T03:11:59;10.60;99.90
14934;DHT22;7560;51.364;12.384;2023-04-01T03:17:01;10.70;99.90
14934;DHT22;7560;51.364;12.384;2023-04-01T03:22:02;10.60;99.90
14934;DHT22;7560;51.364;12.384;2023-04-01T03:27:04;10.60;99.90
14934;DHT22;7560;51.364;12.384;2023-04-01T03:32:06;10.50;99.90
14934;DHT22;7560;51.364;12.384;2023-04-01T03:37:08;10.60;99.90
14934;DHT22;7560;51.364;12.384;2023-04-01T03:42:09;10.60;99.90
14934;DHT22;7560;51.364;12.384;2023-04-01T03:47:11;10.60;99.90
14934;DHT22;7560;51.364;12.384;2023-04-01T03:52:13;10.60;99.90
14934;DHT22;7560;51.364;12.384;2023-04-01T03:57:15;10.60;99.90
14934;DHT22;7560;51.364;12.384;2023-04-01T04:02:17;10.60;99.90
14934;DHT22;7560;51.364;12.384;2023-04-01T04:07:18;10.50;99.90
14934;DHT22;7560;51.364;12.384;2023-04-01T04:12:20;10.40;99.90
14934;DHT22;7560;51.364;12.384;2023-04-01T04:17:22;10.40;99.90
14934;DHT22;7560;51.364;12.384;2023-04-01T04:22:24;10.40;99.90
14934;DHT22;7560;51.364;12.384;2023-04-01T04:27:26;10.40;99.90
14934;DHT22;7560;51.364;12.384;2023-04-01T04:32:27;10.30;99.90
14934;DHT22;7560;51.364;12.384;2023-04-01T04:37:30;10.30;99.90
14934;DHT22;7560;51.364;12.384;2023-04-01T04:42:32;10.30;99.90
14934;DHT22;7560;51.364;12.384;2023-04-01T04:47:33;10.30;99.90
14934;DHT22;7560;51.364;12.384;2023-04-01T04:52:35;10.30;99.90
14934;DHT22;7560;51.364;12.384;2023-04-01T04:57:37;10.30;99.90
14934;DHT22;7560;51.364;12.384;2023-04-01T05:02:39;10.30;99.90
14934;DHT22;7560;51.364;12.384;2023-04-01T05:07:41;10.40;99.90
14934;DHT22;7560;51.364;12.384;2023-04-01T05:12:43;10.40;99.90
14934;DHT22;7560;51.364;12.384;2023-04-01T05:17:44;10.40;99.90
14934;DHT22;7560;51.364;12.384;2023-04-01T05:22:46;10.50;99.90
14934;DHT22;7560;51.364;12.384;2023-04-01T05:27:48;10.50;99.90
14934;DHT22;7560;51.364;12.384;2023-04-01T05:32:50;10.60;99.90
14934;DHT22;7560;51.364;12.384;2023-04-01T05:37:51;10.70;99.90
14934;DHT22;7560;51.364;12.384;2023-04-01T05:42:53;10.90;99.90
14934;DHT22;7560;51.364;12.384;2023-04-01T05:47:55;11.00;99.90
14934;DHT22;7560;51.364;12.384;2023-04-01T05:52:57;11.10;99.90
14934;DHT22;7560;51.364;12.384;2023-04-01T05:57:59;11.10;99.90
14934;DHT22;7560;51.364;12.384;2023-04-01T06:03:01;11.10;99.90
14934;DHT22;7560;51.364;12.384;2023-04-01T06:08:13;11.10;99.90
14934;DHT22;7560;51.364;12.384;2023-04-01T06:35:19;11.50;99.90
14934;DHT22;7560;51.364;12.384;2023-04-01T06:57:41;12.10;99.90
14934;DHT22;7560;51.364;12.384;2023-04-01T07:08:10;12.30;99.90
14934;DHT22;7560;51.364;12.384;2023-04-01T07:14:09;12.40;99.90
14934;DHT22;7560;51.364;12.384;2023-04-01T07:19:08;12.60;99.90
14934;DHT22;7560;51.364;12.384;2023-04-01T07:24:22;12.90;99.90
14934;DHT22;7560;51.364;12.384;2023-04-01T07:29:27;13.20;99.90
14934;DHT22;7560;51.364;12.384;2023-04-01T07:45:28;13.10;99.90
14934;DHT22;7560;51.364;12.384;2023-04-01T07:56:02;13.20;99.90
14934;DHT22;7560;51.364;12.384;2023-04-01T08:01:22;13.50;99.90
14934;DHT22;7560;51.364;12.384;2023-04-01T08:06:32;13.70;99.90
14934;DHT22;7560;51.364;12.384;2023-04-01T08:12:04;13.60;99.90
14934;DHT22;7560;51.364;12.384;2023-04-01T08:17:22;13.30;99.90
14934;DHT22;7560;51.364;12.384;2023-04-01T08:22:53;13.10;99.90
14934;DHT22;7560;51.364;12.384;2023-04-01T08:33:15;13.50;99.90
14934;DHT22;7560;51.364;12.384;2023-04-01T08:38:42;14.00;99.90
14934;DHT22;7560;51.364;12.384;2023-04-01T08:59:38;14.30;99.90
14934;DHT22;7560;51.364;12.384;2023-04-01T09:05:18;14.40;99.90
14934;DHT22;7560;51.364;12.384;2023-04-01T09:15:57;14.90;99.90
14934;DHT22;7560;51.364;12.384;2023-04-01T09:37:21;15.40;99.90
14934;DHT22;7560;51.364;12.384;2023-04-01T09:58:33;15.20;99.90
14934;DHT22;7560;51.364;12.384;2023-04-01T10:37:04;14.00;99.90
14934;DHT22;7560;51.364;12.384;2023-04-01T10:43:00;14.00;99.90
14934;DHT22;7560;51.364;12.384;2023-04-01T10:48:50;13.90;99.90
14934;DHT22;7560;51.364;12.384;2023-04-01T11:26:51;13.20;99.90
14934;DHT22;7560;51.364;12.384;2023-04-01T11:32:02;13.40;99.90
14934;DHT22;7560;51.364;12.384;2023-04-01T11:37:41;13.30;99.90
14934;DHT22;7560;51.364;12.384;2023-04-01T12:15:02;14.60;99.90
14934;DHT22;7560;51.364;12.384;2023-04-01T12:20:21;14.60;99.90
14934;DHT22;7560;51.364;12.384;2023-04-01T13:09:07;14.70;99.90
14934;DHT22;7560;51.364;12.384;2023-04-01T13:19:55;14.80;99.90
14934;DHT22;7560;51.364;12.384;2023-04-01T13:30:48;14.70;99.90
14934;DHT22;7560;51.364;12.384;2023-04-01T14:03:03;14.40;99.90
14934;DHT22;7560;51.364;12.384;2023-04-01T14:30:15;14.20;99.90
14934;DHT22;7560;51.364;12.384;2023-04-01T14:40:55;14.10;99.90
14934;DHT22;7560;51.364;12.384;2023-04-01T14:46:14;14.10;99.90
14934;DHT22;7560;51.364;12.384;2023-04-01T14:51:37;14.00;99.90
14934;DHT22;7560;51.364;12.384;2023-04-01T14:56:42;14.00;99.90
14934;DHT22;7560;51.364;12.384;2023-04-01T15:07:56;13.90;99.90
14934;DHT22;7560;51.364;12.384;2023-04-01T15:24:03;13.80;99.90
14934;DHT22;7560;51.364;12.384;2023-04-01T15:34:56;13.70;99.90
14934;DHT22;7560;51.364;12.384;2023-04-01T15:40:20;13.60;99.90
14934;DHT22;7560;51.364;12.384;2023-04-01T15:56:06;13.10;99.90
14934;DHT22;7560;51.364;12.384;2023-04-01T16:12:59;13.00;99.90
14934;DHT22;7560;51.364;12.384;2023-04-01T16:34:44;12.70;99.90
14934;DHT22;7560;51.364;12.384;2023-04-01T16:50:58;12.70;99.90
14934;DHT22;7560;51.364;12.384;2023-04-01T17:01:07;12.80;99.90
14934;DHT22;7560;51.364;12.384;2023-04-01T17:11:58;12.70;99.90
14934;DHT22;7560;51.364;12.384;2023-04-01T17:23:20;12.30;99.90
14934;DHT22;7560;51.364;12.384;2023-04-01T17:28:41;12.10;99.90
14934;DHT22;7560;51.364;12.384;2023-04-01T17:44:55;11.90;99.90
14934;DHT22;7560;51.364;12.384;2023-04-01T17:55:45;11.70;99.90
14934;DHT22;7560;51.364;12.384;2023-04-01T18:01:21;11.60;99.90
14934;DHT22;7560;51.364;12.384;2023-04-01T18:22:03;11.40;99.90
14934;DHT22;7560;51.364;12.384;2023-04-01T18:37:36;11.50;99.90
14934;DHT22;7560;51.364;12.384;2023-04-01T18:43:12;11.50;99.90
14934;DHT22;7560;51.364;12.384;2023-04-01T18:48:54;11.40;99.90
14934;DHT22;7560;51.364;12.384;2023-04-01T18:54:05;11.30;99.90
14934;DHT22;7560;51.364;12.384;2023-04-01T18:59:26;11.30;99.90
14934;DHT22;7560;51.364;12.384;2023-04-01T19:26:27;10.50;99.90
14934;DHT22;7560;51.364;12.384;2023-04-01T19:37:02;10.40;99.90
14934;DHT22;7560;51.364;12.384;2023-04-01T19:42:30;10.20;99.90
14934;DHT22;7560;51.364;12.384;2023-04-01T19:52:56;9.90;99.90
14934;DHT22;7560;51.364;12.384;2023-04-01T20:03:34;9.70;99.90
14934;DHT22;7560;51.364;12.384;2023-04-01T20:14:23;9.70;99.90
14934;DHT22;7560;51.364;12.384;2023-04-01T20:19:38;9.50;99.90
14934;DHT22;7560;51.364;12.384;2023-04-01T20:24:44;9.40;99.90
14934;DHT22;7560;51.364;12.384;2023-04-01T20:40:34;9.10;99.90
14934;DHT22;7560;51.364;12.384;2023-04-01T20:51:13;9.00;99.90
14934;DHT22;7560;51.364;12.384;2023-04-01T20:56:42;9.10;99.90
14934;DHT22;7560;51.364;12.384;2023-04-01T21:01:55;9.00;99.90
14934;DHT22;7560;51.364;12.384;2023-04-01T21:12:26;8.70;99.90
14934;DHT22;7560;51.364;12.384;2023-04-01T21:33:37;8.50;99.90
14934;DHT22;7560;51.364;12.384;2023-04-01T22:00:27;7.80;99.90
14934;DHT22;7560;51.364;12.384;2023-04-01T22:05:42;7.90;99.90
14934;DHT22;7560;51.364;12.384;2023-04-01T22:10:53;7.80;99.90
14934;DHT22;7560;51.364;12.384;2023-04-01T22:16:39;7.70;99.90
14934;DHT22;7560;51.364;12.384;2023-04-01T22:27:01;7.70;99.90
14934;DHT22;7560;51.364;12.384;2023-04-01T22:32:08;7.60;99.90
14934;DHT22;7560;51.364;12.384;2023-04-01T22:37:16;7.60;99.90
14934;DHT22;7560;51.364;12.384;2023-04-01T22:42:42;7.40;99.90
14934;DHT22;7560;51.364;12.384;2023-04-01T22:47:58;7.30;99.90
14934;DHT22;7560;51.364;12.384;2023-04-01T22:58:15;7.20;99.90
14934;DHT22;7560;51.364;12.384;2023-04-01T23:03:40;7.10;99.90
14934;DHT22;7560;51.364;12.384;2023-04-01T23:08:59;7.20;99.90
14934;DHT22;7560;51.364;12.384;2023-04-01T23:14:28;7.10;99.90
14934;DHT22;7560;51.364;12.384;2023-04-01T23:30:45;6.70;99.90
14934;DHT22;7560;51.364;12.384;2023-04-01T23:35:48;6.60;99.90
14934;DHT22;7560;51.364;12.384;2023-04-01T23:40:53;6.50;99.90
14934;DHT22;7560;51.364;12.384;2023-04-01T23:45:55;6.50;99.90
14934;DHT22;7560;51.364;12.384;2023-04-01T23:50:58;6.40;99.90
14934;DHT22;7560;51.364;12.384;2023-04-01T23:56:02;6.40;99.90
